createdAt,value
2018-05-06T00:00:50.973Z,0.00
2018-05-06T00:01:50.973Z,0.00
2018-05-06T00:02:50.889Z,0.00
2018-05-06T00:03:50.841Z,0.00
2018-05-06T00:04:50.841Z,0.00
2018-05-06T00:05:50.766Z,0.00
2018-05-06T00:06:50.721Z,0.00
2018-05-06T00:07:50.680Z,0.00
2018-05-06T00:08:50.643Z,0.00
2018-05-06T00:09:50.628Z,0.00
2018-05-06T00:10:50.570Z,0.00
2018-05-06T00:11:50.533Z,0.00
2018-05-06T00:12:50.516Z,0.00
2018-05-06T00:13:50.451Z,0.00
2018-05-06T00:14:50.437Z,0.00
2018-05-06T00:15:50.361Z,0.00
2018-05-06T00:16:50.323Z,0.00
2018-05-06T00:17:50.286Z,0.00
2018-05-06T00:18:50.260Z,0.00
2018-05-06T00:19:50.246Z,0.00
2018-05-06T00:20:50.156Z,0.00
2018-05-06T00:21:50.125Z,0.00
2018-05-06T00:22:50.088Z,0.00
2018-05-06T00:23:50.052Z,0.00
2018-05-06T00:24:50.035Z,0.00
2018-05-06T00:25:49.967Z,0.00
2018-05-06T00:26:49.931Z,0.00
2018-05-06T00:27:49.877Z,0.00
2018-05-06T00:28:49.840Z,0.00
2018-05-06T00:29:49.831Z,0.00
2018-05-06T00:30:49.772Z,0.00
2018-05-06T00:31:49.737Z,0.00
2018-05-06T00:32:49.695Z,0.00
2018-05-06T00:33:49.669Z,0.00
2018-05-06T00:34:49.614Z,0.00
2018-05-06T00:35:49.564Z,0.00
2018-05-06T00:36:49.527Z,0.00
2018-05-06T00:37:49.484Z,0.00
2018-05-06T00:38:49.470Z,0.00
2018-05-06T00:39:49.397Z,0.00
2018-05-06T00:40:49.357Z,0.00
2018-05-06T00:41:49.321Z,0.00
2018-05-06T00:42:49.284Z,0.00
2018-05-06T00:43:49.271Z,0.00
2018-05-06T00:44:49.206Z,0.00
2018-05-06T00:45:49.162Z,0.00
2018-05-06T00:46:49.120Z,0.00
2018-05-06T00:47:49.074Z,0.00
2018-05-06T00:48:49.071Z,0.00
2018-05-06T00:49:48.997Z,0.00
2018-05-06T00:50:48.962Z,0.00
2018-05-06T00:51:48.924Z,0.00
2018-05-06T00:52:48.874Z,0.00
2018-05-06T00:53:48.863Z,0.00
2018-05-06T00:54:48.860Z,0.00
2018-05-06T00:55:48.766Z,0.00
2018-05-06T00:56:48.724Z,0.00
2018-05-06T00:57:48.690Z,0.00
2018-05-06T00:58:48.658Z,0.00
2018-05-06T00:59:48.590Z,0.00
2018-05-06T01:00:48.555Z,0.00
2018-05-06T01:01:48.510Z,0.00
2018-05-06T01:02:48.591Z,0.00
2018-05-06T01:03:48.461Z,0.00
2018-05-06T01:04:48.395Z,0.00
2018-05-06T01:05:48.359Z,0.00
2018-05-06T01:06:48.319Z,0.00
2018-05-06T01:07:48.296Z,0.00
2018-05-06T01:08:48.233Z,0.00
2018-05-06T01:09:48.198Z,0.00
2018-05-06T01:10:48.148Z,0.00
2018-05-06T01:11:48.109Z,0.00
2018-05-06T01:12:48.095Z,0.00
2018-05-06T01:13:48.026Z,0.00
2018-05-06T01:14:47.992Z,0.00
2018-05-06T01:15:47.952Z,0.00
2018-05-06T01:16:47.910Z,0.00
2018-05-06T01:17:47.897Z,0.00
2018-05-06T01:18:47.821Z,0.00
2018-05-06T01:19:47.789Z,0.00
2018-05-06T01:20:47.750Z,0.00
2018-05-06T01:21:47.697Z,0.00
2018-05-06T01:22:47.694Z,0.00
2018-05-06T01:23:47.627Z,0.00
2018-05-06T01:24:47.582Z,0.00
2018-05-06T01:25:47.535Z,0.00
2018-05-06T01:26:47.508Z,0.00
2018-05-06T01:27:47.485Z,0.00
2018-05-06T01:28:47.423Z,0.00
2018-05-06T01:29:47.387Z,0.00
2018-05-06T01:30:47.336Z,0.00
2018-05-06T01:31:47.305Z,0.00
2018-05-06T01:32:47.287Z,0.00
2018-05-06T01:33:47.218Z,0.00
2018-05-06T01:34:47.184Z,0.00
2018-05-06T01:35:47.143Z,0.00
2018-05-06T01:36:47.151Z,0.00
2018-05-06T01:37:47.094Z,0.00
2018-05-06T01:38:47.011Z,0.00
2018-05-06T01:39:46.976Z,0.00
2018-05-06T01:40:57.120Z,0.00
2018-05-06T01:41:46.893Z,0.00
2018-05-06T01:42:46.875Z,0.00
2018-05-06T01:43:46.805Z,0.00
2018-05-06T01:44:46.778Z,0.00
2018-05-06T01:45:46.734Z,0.00
2018-05-06T01:46:46.715Z,0.00
2018-05-06T01:47:46.654Z,0.00
2018-05-06T01:48:46.607Z,0.00
2018-05-06T01:49:46.566Z,0.00
2018-05-06T01:50:46.528Z,0.00
2018-05-06T01:51:46.504Z,0.00
2018-05-06T01:52:46.452Z,0.00
2018-05-06T01:53:46.410Z,0.00
2018-05-06T01:54:46.364Z,0.00
2018-05-06T01:55:46.322Z,0.00
2018-05-06T01:56:46.309Z,0.00
2018-05-06T01:57:46.246Z,0.00
2018-05-06T01:58:46.202Z,0.00
2018-05-06T01:59:46.170Z,0.00
2018-05-06T02:00:46.141Z,0.00
2018-05-06T02:01:46.103Z,0.00
2018-05-06T02:02:46.043Z,0.00
2018-05-06T02:03:45.993Z,0.00
2018-05-06T02:04:45.982Z,0.00
2018-05-06T02:05:45.918Z,0.00
2018-05-06T02:06:45.899Z,0.00
2018-05-06T02:07:45.839Z,0.00
2018-05-06T02:08:45.787Z,0.00
2018-05-06T02:09:45.755Z,0.00
2018-05-06T02:10:45.715Z,0.00
2018-05-06T02:11:45.703Z,0.00
2018-05-06T02:12:45.627Z,0.00
2018-05-06T02:13:45.594Z,0.00
2018-05-06T02:14:45.549Z,0.00
2018-05-06T02:15:45.505Z,0.00
2018-05-06T02:16:45.500Z,0.00
2018-05-06T02:17:45.430Z,0.00
2018-05-06T02:18:45.390Z,0.00
2018-05-06T02:19:45.352Z,0.00
2018-05-06T02:20:45.329Z,0.00
2018-05-06T02:21:45.269Z,0.00
2018-05-06T02:22:45.226Z,0.00
2018-05-06T02:23:45.183Z,0.00
2018-05-06T02:24:45.150Z,0.00
2018-05-06T02:25:45.127Z,0.00
2018-05-06T02:26:45.063Z,0.00
2018-05-06T02:27:45.075Z,0.00
2018-05-06T02:28:44.985Z,0.00
2018-05-06T02:29:44.941Z,0.00
2018-05-06T02:30:44.922Z,0.00
2018-05-06T02:31:44.863Z,0.00
2018-05-06T02:32:44.813Z,0.00
2018-05-06T02:33:44.772Z,0.00
2018-05-06T02:34:44.732Z,0.00
2018-05-06T02:35:44.722Z,0.00
2018-05-06T02:36:44.669Z,0.00
2018-05-06T02:37:44.617Z,0.00
2018-05-06T02:38:44.578Z,0.00
2018-05-06T02:39:44.533Z,0.00
2018-05-06T02:40:44.486Z,0.00
2018-05-06T02:41:44.476Z,0.00
2018-05-06T02:42:44.409Z,0.00
2018-05-06T02:43:44.375Z,0.00
2018-05-06T02:44:44.323Z,0.00
2018-05-06T02:45:44.285Z,0.00
2018-05-06T02:46:44.266Z,0.00
2018-05-06T02:47:44.198Z,0.00
2018-05-06T02:48:44.169Z,0.00
2018-05-06T02:49:44.125Z,0.00
2018-05-06T02:50:44.080Z,0.00
2018-05-06T02:51:53.663Z,0.00
2018-05-06T02:52:43.999Z,0.00
2018-05-06T02:53:43.953Z,0.00
2018-05-06T02:54:43.923Z,0.00
2018-05-06T02:55:43.877Z,0.00
2018-05-06T02:56:43.833Z,0.00
2018-05-06T02:57:43.815Z,0.00
2018-05-06T02:58:43.756Z,0.00
2018-05-06T02:59:43.714Z,0.00
2018-05-06T03:00:43.668Z,0.00
2018-05-06T03:01:43.634Z,0.00
2018-05-06T03:02:43.579Z,0.00
2018-05-06T03:03:43.576Z,0.00
2018-05-06T03:04:43.507Z,0.00
2018-05-06T03:05:43.459Z,0.00
2018-05-06T03:06:43.425Z,0.00
2018-05-06T03:07:43.382Z,0.00
2018-05-06T03:08:43.343Z,0.00
2018-05-06T03:09:43.331Z,0.00
2018-05-06T03:10:43.256Z,0.00
2018-05-06T03:11:43.217Z,0.00
2018-05-06T03:12:43.188Z,0.00
2018-05-06T03:13:43.145Z,0.00
2018-05-06T03:14:51.685Z,0.00
2018-05-06T03:15:43.046Z,0.00
2018-05-06T03:16:43.020Z,0.00
2018-05-06T03:17:42.979Z,0.00
2018-05-06T03:18:42.930Z,0.00
2018-05-06T03:19:42.895Z,0.00
2018-05-06T03:20:42.871Z,0.00
2018-05-06T03:21:42.801Z,0.00
2018-05-06T03:22:42.764Z,0.00
2018-05-06T03:23:42.715Z,0.00
2018-05-06T03:24:42.684Z,0.00
2018-05-06T03:25:42.641Z,0.00
2018-05-06T03:26:42.618Z,0.00
2018-05-06T03:27:42.556Z,0.00
2018-05-06T03:28:42.523Z,0.00
2018-05-06T03:29:42.475Z,0.00
2018-05-06T03:30:42.438Z,0.00
2018-05-06T03:31:42.426Z,0.00
2018-05-06T03:32:42.345Z,0.00
2018-05-06T03:33:42.310Z,0.00
2018-05-06T03:34:42.263Z,0.00
2018-05-06T03:35:42.221Z,0.00
2018-05-06T03:36:42.190Z,0.00
2018-05-06T03:37:51.732Z,0.00
2018-05-06T03:38:42.094Z,0.00
2018-05-06T03:39:42.063Z,0.00
2018-05-06T03:40:42.026Z,0.00
2018-05-06T03:41:41.988Z,0.00
2018-05-06T03:42:41.927Z,0.00
2018-05-06T03:43:41.917Z,5.63
2018-05-06T03:44:41.851Z,5.63
2018-05-06T03:45:41.810Z,5.63
2018-05-06T03:46:41.775Z,5.63
2018-05-06T03:47:41.733Z,5.63
2018-05-06T03:48:41.723Z,5.63
2018-05-06T03:49:41.651Z,5.63
2018-05-06T03:50:41.601Z,11.25
2018-05-06T03:51:41.572Z,11.25
2018-05-06T03:52:41.523Z,11.25
2018-05-06T03:53:48.205Z,11.25
2018-05-06T03:54:41.482Z,16.88
2018-05-06T03:55:41.399Z,16.88
2018-05-06T03:56:41.366Z,16.88
2018-05-06T03:57:41.311Z,16.88
2018-05-06T03:58:41.277Z,22.50
2018-05-06T03:59:41.238Z,22.50
2018-05-06T04:00:51.741Z,22.50
2018-05-06T04:01:41.153Z,22.50
2018-05-06T04:02:41.107Z,28.13
2018-05-06T04:03:41.063Z,28.13
2018-05-06T04:04:41.033Z,28.13
2018-05-06T04:05:41.092Z,33.75
2018-05-06T04:06:40.947Z,33.75
2018-05-06T04:07:40.906Z,39.38
2018-05-06T04:08:40.858Z,39.38
2018-05-06T04:09:40.817Z,39.38
2018-05-06T04:10:40.780Z,45.00
2018-05-06T04:11:40.769Z,45.00
2018-05-06T04:12:40.693Z,45.00
2018-05-06T04:13:40.652Z,50.63
2018-05-06T04:14:40.611Z,50.63
2018-05-06T04:15:40.568Z,56.25
2018-05-06T04:16:40.557Z,56.25
2018-05-06T04:17:40.489Z,56.25
2018-05-06T04:18:40.447Z,61.88
2018-05-06T04:19:40.409Z,61.88
2018-05-06T04:20:40.356Z,67.50
2018-05-06T04:21:40.353Z,67.50
2018-05-06T04:22:40.280Z,73.13
2018-05-06T04:23:40.236Z,73.13
2018-05-06T04:24:40.204Z,73.13
2018-05-06T04:25:40.165Z,78.75
2018-05-06T04:26:40.116Z,78.75
2018-05-06T04:27:40.099Z,84.38
2018-05-06T04:28:40.040Z,84.38
2018-05-06T04:29:39.995Z,84.38
2018-05-06T04:30:39.950Z,90.00
2018-05-06T04:31:39.917Z,90.00
2018-05-06T04:32:39.861Z,95.63
2018-05-06T04:33:39.848Z,95.63
2018-05-06T04:34:39.783Z,101.25
2018-05-06T04:35:39.739Z,101.25
2018-05-06T04:36:39.708Z,101.25
2018-05-06T04:37:39.665Z,106.88
2018-05-06T04:38:39.650Z,106.88
2018-05-06T04:39:39.584Z,112.50
2018-05-06T04:40:39.533Z,112.50
2018-05-06T04:41:39.494Z,112.50
2018-05-06T04:42:39.461Z,118.13
2018-05-06T04:43:39.423Z,118.13
2018-05-06T04:44:39.392Z,123.75
2018-05-06T04:45:39.330Z,123.75
2018-05-06T04:46:39.290Z,123.75
2018-05-06T04:47:39.246Z,129.38
2018-05-06T04:48:39.235Z,129.38
2018-05-06T04:49:39.200Z,135.00
2018-05-06T04:50:39.133Z,135.00
2018-05-06T04:51:39.092Z,135.00
2018-05-06T04:52:39.043Z,140.63
2018-05-06T04:53:39.007Z,140.63
2018-05-06T04:54:38.961Z,146.25
2018-05-06T04:55:38.938Z,151.88
2018-05-06T04:56:38.886Z,180.00
2018-05-06T04:57:38.841Z,236.25
2018-05-06T04:58:38.796Z,303.75
2018-05-06T04:59:38.781Z,337.50
2018-05-06T05:00:38.737Z,348.75
2018-05-06T05:01:38.679Z,360.00
2018-05-06T05:02:38.639Z,365.63
2018-05-06T05:03:38.603Z,371.25
2018-05-06T05:04:38.556Z,376.88
2018-05-06T05:05:38.540Z,382.50
2018-05-06T05:06:38.472Z,388.13
2018-05-06T05:07:38.426Z,393.75
2018-05-06T05:08:38.401Z,399.38
2018-05-06T05:09:38.368Z,405.00
2018-05-06T05:10:38.320Z,410.63
2018-05-06T05:11:38.308Z,416.25
2018-05-06T05:12:38.235Z,416.25
2018-05-06T05:13:38.195Z,421.88
2018-05-06T05:14:38.163Z,427.50
2018-05-06T05:15:38.124Z,438.75
2018-05-06T05:16:38.106Z,444.38
2018-05-06T05:17:38.038Z,444.38
2018-05-06T05:18:38.006Z,450.00
2018-05-06T05:19:37.972Z,450.00
2018-05-06T05:20:37.938Z,455.63
2018-05-06T05:21:37.892Z,466.88
2018-05-06T05:22:37.896Z,466.88
2018-05-06T05:23:37.834Z,472.50
2018-05-06T05:24:37.778Z,478.13
2018-05-06T05:25:37.750Z,483.75
2018-05-06T05:26:37.717Z,489.38
2018-05-06T05:27:37.665Z,495.00
2018-05-06T05:28:37.669Z,506.25
2018-05-06T05:29:37.610Z,506.25
2018-05-06T05:30:37.564Z,506.25
2018-05-06T05:31:37.543Z,511.88
2018-05-06T05:32:37.500Z,517.50
2018-05-06T05:33:37.456Z,523.13
2018-05-06T05:34:37.451Z,528.75
2018-05-06T05:35:37.393Z,528.75
2018-05-06T05:36:37.349Z,534.38
2018-05-06T05:37:37.315Z,540.00
2018-05-06T05:38:37.277Z,545.63
2018-05-06T05:39:37.267Z,556.88
2018-05-06T05:40:37.217Z,551.25
2018-05-06T05:41:37.179Z,556.88
2018-05-06T05:42:37.148Z,556.88
2018-05-06T05:43:37.112Z,562.50
2018-05-06T05:44:37.072Z,568.13
2018-05-06T05:45:37.061Z,573.75
2018-05-06T05:46:37.009Z,579.38
2018-05-06T05:47:36.988Z,585.00
2018-05-06T05:48:36.937Z,585.00
2018-05-06T05:49:36.901Z,590.63
2018-05-06T05:50:36.918Z,596.25
2018-05-06T05:51:36.858Z,607.50
2018-05-06T05:52:36.804Z,607.50
2018-05-06T05:53:36.763Z,618.75
2018-05-06T05:54:36.730Z,624.38
2018-05-06T05:55:36.754Z,624.38
2018-05-06T05:56:36.688Z,630.00
2018-05-06T05:57:36.635Z,635.63
2018-05-06T05:58:36.605Z,641.25
2018-05-06T05:59:36.553Z,646.88
2018-05-06T06:00:36.537Z,652.50
2018-05-06T06:01:36.570Z,658.13
2018-05-06T06:02:36.492Z,658.13
2018-05-06T06:03:36.428Z,663.75
2018-05-06T06:04:36.409Z,675.00
2018-05-06T06:05:36.369Z,680.63
2018-05-06T06:06:36.331Z,686.25
2018-05-06T06:07:36.308Z,691.88
2018-05-06T06:08:36.281Z,691.88
2018-05-06T06:09:36.234Z,703.13
2018-05-06T06:10:36.192Z,703.13
2018-05-06T06:11:36.159Z,714.38
2018-05-06T06:12:36.144Z,725.63
2018-05-06T06:13:36.135Z,725.63
2018-05-06T06:14:36.066Z,731.25
2018-05-06T06:15:36.100Z,736.88
2018-05-06T06:16:35.996Z,742.50
2018-05-06T06:17:35.971Z,748.13
2018-05-06T06:18:35.939Z,753.75
2018-05-06T06:19:35.932Z,759.38
2018-05-06T06:20:35.866Z,765.00
2018-05-06T06:21:35.839Z,776.25
2018-05-06T06:22:35.841Z,787.50
2018-05-06T06:23:35.774Z,798.75
2018-05-06T06:24:35.774Z,810.00
2018-05-06T06:25:35.737Z,826.88
2018-05-06T06:26:35.676Z,832.50
2018-05-06T06:27:35.650Z,849.38
2018-05-06T06:28:35.609Z,843.75
2018-05-06T06:29:35.580Z,855.00
2018-05-06T06:30:35.553Z,855.00
2018-05-06T06:31:35.539Z,866.25
2018-05-06T06:32:35.489Z,866.25
2018-05-06T06:33:35.455Z,877.50
2018-05-06T06:34:35.423Z,883.13
2018-05-06T06:35:35.383Z,894.38
2018-05-06T06:36:35.391Z,911.25
2018-05-06T06:37:35.328Z,950.63
2018-05-06T06:38:35.302Z,1001.25
2018-05-06T06:39:35.269Z,1125.00
2018-05-06T06:40:35.227Z,1631.25
2018-05-06T06:41:35.223Z,2278.13
2018-05-06T06:42:35.173Z,2728.13
2018-05-06T06:43:35.152Z,3442.50
2018-05-06T06:44:35.114Z,3099.38
2018-05-06T06:45:35.087Z,2593.13
2018-05-06T06:46:35.073Z,3043.13
2018-05-06T06:47:35.053Z,3133.13
2018-05-06T06:48:34.977Z,2919.38
2018-05-06T06:49:34.949Z,2851.88
2018-05-06T06:50:34.935Z,2778.75
2018-05-06T06:51:34.927Z,2570.63
2018-05-06T06:52:34.855Z,1985.63
2018-05-06T06:53:45.295Z,1783.13
2018-05-06T06:54:34.809Z,1940.63
2018-05-06T06:55:34.796Z,1912.50
2018-05-06T06:56:34.738Z,1749.38
2018-05-06T06:57:34.741Z,1861.88
2018-05-06T06:58:34.672Z,1912.50
2018-05-06T06:59:34.645Z,1676.25
2018-05-06T07:00:34.615Z,1411.88
2018-05-06T07:01:34.579Z,1271.25
2018-05-06T07:02:34.575Z,1276.88
2018-05-06T07:03:34.553Z,1254.38
2018-05-06T07:04:34.552Z,1215.00
2018-05-06T07:05:34.450Z,1198.13
2018-05-06T07:06:43.872Z,1181.25
2018-05-06T07:07:34.442Z,1181.25
2018-05-06T07:08:34.401Z,1153.13
2018-05-06T07:09:34.343Z,1119.38
2018-05-06T07:10:34.315Z,1091.25
2018-05-06T07:11:34.272Z,1102.50
2018-05-06T07:12:34.255Z,1102.50
2018-05-06T07:13:34.301Z,1085.63
2018-05-06T07:14:34.236Z,1068.75
2018-05-06T07:15:34.160Z,1063.13
2018-05-06T07:16:34.123Z,1051.88
2018-05-06T07:17:34.093Z,1046.25
2018-05-06T07:18:34.072Z,1040.63
2018-05-06T07:19:34.041Z,1051.88
2018-05-06T07:20:34.045Z,1051.88
2018-05-06T07:21:33.968Z,1051.88
2018-05-06T07:22:33.939Z,1057.50
2018-05-06T07:23:33.912Z,1057.50
2018-05-06T07:24:33.882Z,1057.50
2018-05-06T07:25:33.847Z,1063.13
2018-05-06T07:26:33.841Z,1063.13
2018-05-06T07:27:33.793Z,1063.13
2018-05-06T07:28:33.748Z,1063.13
2018-05-06T07:29:33.722Z,1074.38
2018-05-06T07:30:33.699Z,1080.00
2018-05-06T07:31:33.687Z,1074.38
2018-05-06T07:32:33.635Z,1080.00
2018-05-06T07:33:33.604Z,1074.38
2018-05-06T07:34:33.574Z,1074.38
2018-05-06T07:35:33.538Z,1091.25
2018-05-06T07:36:33.519Z,1085.63
2018-05-06T07:37:33.505Z,1085.63
2018-05-06T07:38:33.452Z,1096.88
2018-05-06T07:39:33.427Z,1096.88
2018-05-06T07:40:33.385Z,1102.50
2018-05-06T07:41:33.403Z,1102.50
2018-05-06T07:42:33.357Z,1119.38
2018-05-06T07:43:33.294Z,1119.38
2018-05-06T07:44:33.270Z,1119.38
2018-05-06T07:45:33.240Z,1119.38
2018-05-06T07:46:33.205Z,1141.88
2018-05-06T07:47:33.190Z,1136.25
2018-05-06T07:48:33.164Z,1136.25
2018-05-06T07:49:33.115Z,1136.25
2018-05-06T07:50:33.090Z,1130.63
2018-05-06T07:51:33.062Z,1136.25
2018-05-06T07:52:33.017Z,1147.50
2018-05-06T07:53:33.020Z,1158.75
2018-05-06T07:54:32.962Z,1170.00
2018-05-06T07:55:32.952Z,1170.00
2018-05-06T07:56:32.909Z,1158.75
2018-05-06T07:57:32.877Z,1153.13
2018-05-06T07:58:32.850Z,1147.50
2018-05-06T07:59:32.850Z,1153.13
2018-05-06T08:00:32.776Z,1153.13
2018-05-06T08:01:32.761Z,1158.75
2018-05-06T08:02:32.724Z,1158.75
2018-05-06T08:03:32.692Z,1158.75
2018-05-06T08:04:32.667Z,1164.38
2018-05-06T08:05:32.662Z,1170.00
2018-05-06T08:06:32.604Z,1181.25
2018-05-06T08:07:32.569Z,1175.63
2018-05-06T08:08:32.558Z,1181.25
2018-05-06T08:09:32.519Z,1181.25
2018-05-06T08:10:32.487Z,1186.88
2018-05-06T08:11:32.490Z,1198.13
2018-05-06T08:12:32.425Z,1198.13
2018-05-06T08:13:32.396Z,1198.13
2018-05-06T08:14:32.371Z,1192.50
2018-05-06T08:15:32.332Z,1192.50
2018-05-06T08:16:42.892Z,1209.38
2018-05-06T08:17:32.289Z,1220.63
2018-05-06T08:18:32.249Z,1231.88
2018-05-06T08:19:32.222Z,1248.75
2018-05-06T08:20:32.195Z,1260.00
2018-05-06T08:21:32.210Z,1276.88
2018-05-06T08:22:32.134Z,1299.38
2018-05-06T08:23:32.151Z,1310.63
2018-05-06T08:24:32.079Z,1333.13
2018-05-06T08:25:32.076Z,1344.38
2018-05-06T08:26:32.082Z,1366.88
2018-05-06T08:27:31.993Z,1417.50
2018-05-06T08:28:32.185Z,1462.50
2018-05-06T08:29:31.941Z,1535.63
2018-05-06T08:30:31.900Z,1642.50
2018-05-06T08:31:31.879Z,1749.38
2018-05-06T08:32:31.870Z,1884.38
2018-05-06T08:33:31.808Z,2238.75
2018-05-06T08:34:31.796Z,3116.25
2018-05-06T08:35:31.758Z,3774.38
2018-05-06T08:36:31.738Z,4117.50
2018-05-06T08:37:31.730Z,4235.63
2018-05-06T08:38:31.675Z,4134.38
2018-05-06T08:39:31.649Z,4179.38
2018-05-06T08:40:31.624Z,4280.63
2018-05-06T08:41:31.596Z,4134.38
2018-05-06T08:42:31.588Z,4230.00
2018-05-06T08:43:31.533Z,4196.25
2018-05-06T08:44:31.519Z,4280.63
2018-05-06T08:45:31.470Z,4449.38
2018-05-06T08:46:31.464Z,4488.75
2018-05-06T08:47:31.429Z,4758.75
2018-05-06T08:48:31.420Z,4758.75
2018-05-06T08:49:31.370Z,4443.75
2018-05-06T08:50:31.333Z,4263.75
2018-05-06T08:51:31.382Z,4348.13
2018-05-06T08:52:31.289Z,4471.88
2018-05-06T08:53:31.285Z,4336.88
2018-05-06T08:54:31.223Z,4005.00
2018-05-06T08:55:31.192Z,4190.63
2018-05-06T08:56:31.165Z,4398.75
2018-05-06T08:57:31.150Z,4404.38
2018-05-06T08:58:31.156Z,4336.88
2018-05-06T08:59:31.141Z,4381.88
2018-05-06T09:00:31.062Z,4410.00
2018-05-06T09:01:31.045Z,4415.63
2018-05-06T09:02:31.008Z,4505.63
2018-05-06T09:03:30.988Z,4359.38
2018-05-06T09:04:30.990Z,4314.38
2018-05-06T09:05:30.928Z,4494.38
2018-05-06T09:06:30.905Z,4500.00
2018-05-06T09:07:31.015Z,4286.25
2018-05-06T09:08:30.857Z,4258.13
2018-05-06T09:09:30.815Z,4387.50
2018-05-06T09:10:30.829Z,4483.13
2018-05-06T09:11:30.782Z,4556.25
2018-05-06T09:12:30.758Z,4308.75
2018-05-06T09:13:30.721Z,4393.13
2018-05-06T09:14:30.720Z,4550.63
2018-05-06T09:15:30.701Z,4533.75
2018-05-06T09:16:30.632Z,4567.50
2018-05-06T09:17:30.612Z,4494.38
2018-05-06T09:18:30.590Z,4584.38
2018-05-06T09:19:30.568Z,4657.50
2018-05-06T09:20:30.546Z,4561.88
2018-05-06T09:21:30.536Z,4466.25
2018-05-06T09:22:30.489Z,4505.63
2018-05-06T09:23:30.453Z,4500.00
2018-05-06T09:24:30.447Z,4539.38
2018-05-06T09:25:30.470Z,4449.38
2018-05-06T09:26:30.425Z,4522.50
2018-05-06T09:27:30.352Z,4415.63
2018-05-06T09:28:30.323Z,4308.75
2018-05-06T09:29:30.306Z,4258.13
2018-05-06T09:30:30.305Z,4275.00
2018-05-06T09:31:30.257Z,4331.25
2018-05-06T09:32:30.286Z,4336.88
2018-05-06T09:33:30.282Z,4398.75
2018-05-06T09:34:30.194Z,4095.00
2018-05-06T09:35:30.156Z,4055.63
2018-05-06T09:36:30.133Z,4246.88
2018-05-06T09:37:30.141Z,4359.38
2018-05-06T09:38:30.090Z,4275.00
2018-05-06T09:39:30.059Z,4376.25
2018-05-06T09:40:30.020Z,4083.75
2018-05-06T09:41:30.001Z,4156.88
2018-05-06T09:42:29.981Z,4235.63
2018-05-06T09:43:29.987Z,4185.00
2018-05-06T09:44:29.944Z,4280.63
2018-05-06T09:45:29.903Z,4275.00
2018-05-06T09:46:29.880Z,4314.38
2018-05-06T09:47:29.883Z,4252.50
2018-05-06T09:48:29.854Z,4415.63
2018-05-06T09:49:29.805Z,4455.00
2018-05-06T09:50:29.798Z,4117.50
2018-05-06T09:51:29.764Z,4128.75
2018-05-06T09:52:29.741Z,4432.50
2018-05-06T09:53:29.732Z,4275.00
2018-05-06T09:54:29.733Z,4230.00
2018-05-06T09:55:29.657Z,4275.00
2018-05-06T09:56:29.659Z,4410.00
2018-05-06T09:57:29.622Z,4359.38
2018-05-06T09:58:29.616Z,4145.63
2018-05-06T09:59:29.580Z,4083.75
2018-05-06T10:00:29.541Z,4061.25
2018-05-06T10:01:29.537Z,4095.00
2018-05-06T10:02:29.505Z,4252.50
2018-05-06T10:03:29.530Z,4331.25
2018-05-06T10:04:29.455Z,4303.13
2018-05-06T10:05:29.433Z,4218.75
2018-05-06T10:06:29.406Z,4336.88
2018-05-06T10:07:29.375Z,4359.38
2018-05-06T10:08:29.392Z,4370.63
2018-05-06T10:09:29.341Z,4263.75
2018-05-06T10:10:29.332Z,4241.25
2018-05-06T10:11:29.298Z,4286.25
2018-05-06T10:12:29.251Z,4381.88
2018-05-06T10:13:29.229Z,4235.63
2018-05-06T10:14:29.254Z,4128.75
2018-05-06T10:15:29.210Z,4162.50
2018-05-06T10:16:29.180Z,4291.88
2018-05-06T10:17:29.168Z,4246.88
2018-05-06T10:18:29.142Z,4252.50
2018-05-06T10:19:29.086Z,4275.00
2018-05-06T10:20:29.082Z,4280.63
2018-05-06T10:21:29.043Z,4252.50
2018-05-06T10:22:29.041Z,4263.75
2018-05-06T10:23:29.010Z,4342.50
2018-05-06T10:24:28.982Z,3976.88
2018-05-06T10:25:28.987Z,3982.50
2018-05-06T10:26:28.926Z,4376.25
2018-05-06T10:27:28.942Z,4471.88
2018-05-06T10:28:28.889Z,4348.13
2018-05-06T10:29:28.866Z,4145.63
2018-05-06T10:30:28.858Z,4083.75
2018-05-06T10:31:28.828Z,4235.63
2018-05-06T10:32:28.779Z,4280.63
2018-05-06T10:33:28.763Z,4134.38
2018-05-06T10:34:28.761Z,4275.00
2018-05-06T10:35:28.730Z,4426.88
2018-05-06T10:36:28.709Z,4320.00
2018-05-06T10:37:28.692Z,4246.88
2018-05-06T10:38:28.713Z,4168.13
2018-05-06T10:39:28.611Z,4156.88
2018-05-06T10:40:28.581Z,4488.75
2018-05-06T10:41:28.571Z,4370.63
2018-05-06T10:42:28.639Z,4320.00
2018-05-06T10:43:28.537Z,4297.50
2018-05-06T10:44:28.563Z,3999.38
2018-05-06T10:45:28.479Z,4078.13
2018-05-06T10:46:28.444Z,4280.63
2018-05-06T10:47:28.427Z,4325.63
2018-05-06T10:48:28.439Z,4303.13
2018-05-06T10:49:28.372Z,4325.63
2018-05-06T10:50:28.392Z,4336.88
2018-05-06T10:51:28.321Z,4241.25
2018-05-06T10:52:28.296Z,4275.00
2018-05-06T10:53:28.309Z,4213.13
2018-05-06T10:54:28.253Z,4173.75
2018-05-06T10:55:28.237Z,4246.88
2018-05-06T10:56:28.213Z,4275.00
2018-05-06T10:57:28.173Z,4185.00
2018-05-06T10:58:28.157Z,4320.00
2018-05-06T10:59:28.146Z,4263.75
2018-05-06T11:00:28.112Z,4134.38
2018-05-06T11:01:28.079Z,4230.00
2018-05-06T11:02:28.052Z,4303.13
2018-05-06T11:03:28.171Z,4230.00
2018-05-06T11:04:37.984Z,4190.63
2018-05-06T11:05:27.992Z,4297.50
2018-05-06T11:06:27.966Z,4258.13
2018-05-06T11:07:27.940Z,4078.13
2018-05-06T11:08:27.917Z,3898.13
2018-05-06T11:09:27.892Z,3915.00
2018-05-06T11:10:27.987Z,4123.13
2018-05-06T11:11:27.842Z,4196.25
2018-05-06T11:12:27.833Z,4151.25
2018-05-06T11:13:27.808Z,4151.25
2018-05-06T11:14:27.811Z,4145.63
2018-05-06T11:15:27.787Z,4162.50
2018-05-06T11:16:27.735Z,4089.38
2018-05-06T11:17:27.720Z,4275.00
2018-05-06T11:18:27.702Z,4578.75
2018-05-06T11:19:27.678Z,3566.25
2018-05-06T11:20:27.645Z,3543.75
2018-05-06T11:21:27.727Z,3763.13
2018-05-06T11:22:27.609Z,3763.13
2018-05-06T11:23:27.580Z,4224.38
2018-05-06T11:24:27.562Z,4123.13
2018-05-06T11:25:27.543Z,3965.63
2018-05-06T11:26:27.522Z,3898.13
2018-05-06T11:27:27.532Z,4061.25
2018-05-06T11:28:27.472Z,4145.63
2018-05-06T11:29:27.445Z,4010.63
2018-05-06T11:30:27.429Z,4078.13
2018-05-06T11:31:27.406Z,4111.88
2018-05-06T11:32:27.383Z,4258.13
2018-05-06T11:33:27.475Z,4314.38
2018-05-06T11:34:27.345Z,4185.00
2018-05-06T11:35:27.316Z,4117.50
2018-05-06T11:36:27.296Z,4134.38
2018-05-06T11:37:27.277Z,4196.25
2018-05-06T11:38:27.286Z,3988.13
2018-05-06T11:39:27.241Z,3735.00
2018-05-06T11:40:27.236Z,3667.50
2018-05-06T11:41:27.232Z,3993.75
2018-05-06T11:42:27.168Z,4117.50
2018-05-06T11:43:27.138Z,3954.38
2018-05-06T11:44:27.146Z,4083.75
2018-05-06T11:45:27.104Z,4095.00
2018-05-06T11:46:27.066Z,4106.25
2018-05-06T11:47:27.054Z,4156.88
2018-05-06T11:48:27.033Z,4072.50
2018-05-06T11:49:27.012Z,4072.50
2018-05-06T11:50:27.019Z,3999.38
2018-05-06T11:51:26.961Z,4038.75
2018-05-06T11:52:26.936Z,4038.75
2018-05-06T11:53:26.909Z,4128.75
2018-05-06T11:54:26.894Z,4072.50
2018-05-06T11:55:26.900Z,3898.13
2018-05-06T11:56:26.854Z,3976.88
2018-05-06T11:57:26.835Z,4050.00
2018-05-06T11:58:26.820Z,4021.88
2018-05-06T11:59:26.779Z,3881.25
2018-05-06T12:00:26.757Z,4066.88
2018-05-06T12:01:26.756Z,4106.25
2018-05-06T12:02:26.853Z,3915.00
2018-05-06T12:03:26.691Z,3965.63
2018-05-06T12:04:26.669Z,4055.63
2018-05-06T12:05:26.664Z,4185.00
2018-05-06T12:06:26.618Z,4342.50
2018-05-06T12:07:26.596Z,4252.50
2018-05-06T12:08:26.576Z,4089.38
2018-05-06T12:09:26.563Z,4027.50
2018-05-06T12:10:26.564Z,4066.88
2018-05-06T12:11:26.513Z,4066.88
2018-05-06T12:12:26.483Z,4089.38
2018-05-06T12:13:26.456Z,4038.75
2018-05-06T12:14:26.439Z,3898.13
2018-05-06T12:15:26.417Z,4027.50
2018-05-06T12:16:26.415Z,4055.63
2018-05-06T12:17:26.379Z,3982.50
2018-05-06T12:18:26.344Z,3960.00
2018-05-06T12:19:26.321Z,4106.25
2018-05-06T12:20:26.306Z,3982.50
2018-05-06T12:21:26.320Z,3864.38
2018-05-06T12:22:26.267Z,3971.25
2018-05-06T12:23:26.239Z,3909.38
2018-05-06T12:24:26.212Z,3943.13
2018-05-06T12:25:26.184Z,4140.00
2018-05-06T12:26:26.196Z,4038.75
2018-05-06T12:27:26.145Z,3954.38
2018-05-06T12:28:26.185Z,3858.75
2018-05-06T12:29:26.109Z,3622.50
2018-05-06T12:30:26.088Z,3639.38
2018-05-06T12:31:26.062Z,3718.13
2018-05-06T12:32:26.070Z,3740.63
2018-05-06T12:33:26.011Z,3802.50